Wetterdaten: Mittwoch, 15.06.2016
Datum Zeit Auen-Temp. Temp gefhlt Luftfeuchte Luftdruck Regen Wind Richtung Richtung Sonnenschein Taupunkt Windben
15.06.2016 00:00 10,7 C 10,3 C 81 % 1005,3 hPa 0,0 mm 3,9 km/h (1 Bft) S 180 0 min 7,6 C 3,9 km/h (1 Bft)
15.06.2016 00:05 10,6 C 10,2 C 81 % 1005,3 hPa 0,0 mm 5,1 km/h (1 Bft) S 180 0 min 7,5 C 0,0 km/h (0 Bft)
15.06.2016 00:10 10,6 C 10,0 C 81 % 1005,3 hPa 0,0 mm 5,7 km/h (1 Bft) SW 225 0 min 7,5 C 7,5 km/h (2 Bft)
15.06.2016 00:11 10,5 C 9,9 C 80 % 1005,2 hPa 0,0 mm 5,7 km/h (1 Bft) SW 225 0 min 7,2 C 10,7 km/h (2 Bft)
15.06.2016 00:14 10,5 C 9,9 C 80 % 1005,2 hPa 0,0 mm 5,7 km/h (1 Bft) SW 225 0 min 7,2 C 10,7 km/h (2 Bft)
15.06.2016 00:15 10,5 C 9,9 C 80 % 1005,2 hPa 0,0 mm 5,7 km/h (1 Bft) SW 225 0 min 7,2 C 10,7 km/h (2 Bft)
15.06.2016 00:20 10,4 C 9,8 C 79 % 1005,2 hPa 0,0 mm 6,0 km/h (2 Bft) W 270 0 min 6,9 C 15,8 km/h (3 Bft)
15.06.2016 00:25 10,3 C 9,8 C 79 % 1005,2 hPa 0,0 mm 6,0 km/h (2 Bft) SW 225 0 min 6,8 C 15,2 km/h (3 Bft)
15.06.2016 00:30 10,3 C 9,8 C 79 % 1005,2 hPa 0,0 mm 6,3 km/h (2 Bft) SW 225 0 min 6,8 C 11,0 km/h (2 Bft)
15.06.2016 00:35 10,3 C 9,7 C 78 % 1005,1 hPa 0,0 mm 6,9 km/h (2 Bft) SW 225 0 min 6,6 C 9,5 km/h (2 Bft)
15.06.2016 00:40 10,3 C 9,6 C 78 % 1005,1 hPa 0,0 mm 7,7 km/h (2 Bft) W-SW 247 0 min 6,6 C 14,3 km/h (3 Bft)
15.06.2016 00:45 10,2 C 9,6 C 78 % 1005,1 hPa 0,0 mm 8,0 km/h (2 Bft) W-SW 247 0 min 6,5 C 9,8 km/h (2 Bft)
15.06.2016 00:50 10,3 C 9,5 C 77 % 1005,1 hPa 0,0 mm 8,6 km/h (2 Bft) S-SW 202 0 min 6,4 C 10,1 km/h (2 Bft)
15.06.2016 00:55 10,2 C 9,8 C 77 % 1004,9 hPa 0,0 mm 7,2 km/h (2 Bft) S-SW 202 0 min 6,4 C 8,3 km/h (2 Bft)
15.06.2016 01:00 10,3 C 9,8 C 77 % 1004,9 hPa 0,0 mm 6,6 km/h (2 Bft) SW 225 0 min 6,4 C 8,9 km/h (2 Bft)
15.06.2016 01:05 10,3 C 9,9 C 76 % 1004,9 hPa 0,0 mm 7,7 km/h (2 Bft) SW 225 0 min 6,3 C 22,1 km/h (4 Bft)
15.06.2016 01:10 10,4 C 9,8 C 75 % 1004,9 hPa 0,0 mm 11,0 km/h (2 Bft) SW 225 0 min 6,2 C 13,4 km/h (3 Bft)
15.06.2016 01:15 10,4 C 9,7 C 75 % 1004,9 hPa 0,0 mm 11,0 km/h (2 Bft) NW 315 0 min 6,2 C 9,2 km/h (2 Bft)
15.06.2016 01:20 10,4 C 9,8 C 75 % 1004,9 hPa 0,0 mm 7,5 km/h (2 Bft) W 270 0 min 6,2 C 14,3 km/h (3 Bft)
15.06.2016 01:25 10,3 C 9,8 C 75 % 1004,9 hPa 0,0 mm 6,9 km/h (2 Bft) W 270 0 min 6,1 C 7,2 km/h (2 Bft)
15.06.2016 01:30 10,3 C 9,8 C 75 % 1004,9 hPa 0,0 mm 7,2 km/h (2 Bft) W 270 0 min 6,1 C 8,0 km/h (2 Bft)
15.06.2016 01:35 10,3 C 9,8 C 75 % 1005,1 hPa 0,7 mm 7,2 km/h (2 Bft) S 180 0 min 6,1 C 22,4 km/h (4 Bft)
15.06.2016 01:40 10,3 C 9,6 C 75 % 1005,1 hPa 0,0 mm 9,2 km/h (2 Bft) W-SW 247 0 min 6,1 C 14,3 km/h (3 Bft)
15.06.2016 01:45 10,3 C 9,7 C 75 % 1005,1 hPa 0,0 mm 7,7 km/h (2 Bft) W-NW 292 0 min 6,1 C 23,8 km/h (4 Bft)
15.06.2016 01:50 10,1 C 9,6 C 76 % 1005,1 hPa 0,0 mm 6,6 km/h (2 Bft) W-SW 247 0 min 6,1 C 8,9 km/h (2 Bft)
15.06.2016 01:55 10,0 C 9,4 C 76 % 1005,2 hPa 0,0 mm 5,7 km/h (1 Bft) SW 225 0 min 6,0 C 8,0 km/h (2 Bft)
15.06.2016 02:00 10,0 C 9,3 C 76 % 1005,2 hPa 0,0 mm 5,7 km/h (1 Bft) O-NO 67 0 min 6,0 C 5,1 km/h (1 Bft)
15.06.2016 02:05 9,8 C 9,2 C 77 % 1005,2 hPa 0,0 mm 5,7 km/h (1 Bft) N-NW 337 0 min 6,0 C 5,1 km/h (1 Bft)
15.06.2016 02:10 9,8 C 9,1 C 77 % 1005,2 hPa 0,0 mm 5,1 km/h (1 Bft) W-SW 247 0 min 6,0 C 0,0 km/h (0 Bft)
15.06.2016 02:15 9,8 C 9,0 C 77 % 1005,2 hPa 0,7 mm 1,5 km/h (1 Bft) NW 315 0 min 6,0 C 0,0 km/h (0 Bft)
15.06.2016 02:20 9,4 C 9,0 C 78 % 1005,2 hPa 0,0 mm 0,0 km/h (0 Bft) W 270 0 min 5,8 C 0,0 km/h (0 Bft)
15.06.2016 02:25 9,3 C 8,9 C 79 % 1005,2 hPa 0,0 mm 0,0 km/h (0 Bft) SW 225 0 min 5,8 C 0,0 km/h (0 Bft)
15.06.2016 02:30 9,3 C 8,9 C 79 % 1005,2 hPa 0,0 mm 0,0 km/h (0 Bft) SO 135 0 min 5,8 C 0,0 km/h (0 Bft)
15.06.2016 02:35 9,1 C 8,8 C 79 % 1005,2 hPa 0,0 mm 0,9 km/h (0 Bft) SW 225 0 min 5,7 C 11,6 km/h (2 Bft)
15.06.2016 02:40 9,1 C 8,8 C 80 % 1005,2 hPa 0,0 mm 2,4 km/h (1 Bft) SW 225 0 min 5,8 C 0,0 km/h (0 Bft)
15.06.2016 02:45 9,1 C 8,7 C 80 % 1005,2 hPa 0,0 mm 3,0 km/h (1 Bft) S-SW 202 0 min 5,8 C 10,1 km/h (2 Bft)
15.06.2016 02:50 9,1 C 8,8 C 80 % 1005,2 hPa 0,0 mm 1,2 km/h (1 Bft) S 180 0 min 5,8 C 0,0 km/h (0 Bft)
15.06.2016 02:55 9,1 C 8,7 C 80 % 1005,0 hPa 0,0 mm 1,2 km/h (1 Bft) S-SO 157 0 min 5,8 C 0,0 km/h (0 Bft)
15.06.2016 03:00 9,1 C 8,6 C 80 % 1005,0 hPa 0,0 mm 0,0 km/h (0 Bft) SO 135 0 min 5,8 C 0,0 km/h (0 Bft)
15.06.2016 03:05 9,1 C 8,6 C 80 % 1005,0 hPa 0,0 mm 0,0 km/h (0 Bft) O-SO 112 0 min 5,8 C 0,0 km/h (0 Bft)
15.06.2016 03:10 9,1 C 8,6 C 80 % 1005,0 hPa 0,0 mm 0,0 km/h (0 Bft) N-NO 22 0 min 5,8 C 0,0 km/h (0 Bft)
15.06.2016 03:11 9,1 C 8,6 C 80 % 1004,8 hPa 0,0 mm 0,0 km/h (0 Bft) O-SO 112 0 min 5,8 C 0,0 km/h (0 Bft)
15.06.2016 03:15 9,1 C 8,6 C 80 % 1004,8 hPa 0,0 mm 0,0 km/h (0 Bft) O-SO 112 0 min 5,8 C 0,0 km/h (0 Bft)
15.06.2016 03:20 9,1 C 8,6 C 80 % 1004,8 hPa 0,0 mm 0,0 km/h (0 Bft) O 90 0 min 5,8 C 0,0 km/h (0 Bft)
15.06.2016 03:25 9,1 C 8,6 C 80 % 1004,8 hPa 0,0 mm 0,0 km/h (0 Bft) N-NO 22 0 min 5,8 C 0,0 km/h (0 Bft)
15.06.2016 03:30 9,1 C 8,6 C 80 % 1004,8 hPa 0,0 mm 0,6 km/h (0 Bft) S-SO 157 0 min 5,8 C 0,0 km/h (0 Bft)
15.06.2016 03:35 9,1 C 8,6 C 80 % 1004,9 hPa 0,0 mm 0,6 km/h (0 Bft) O 90 0 min 5,8 C 0,0 km/h (0 Bft)
15.06.2016 03:40 9,1 C 8,6 C 80 % 1004,9 hPa 0,0 mm 0,0 km/h (0 Bft) O-NO 67 0 min 5,8 C 0,0 km/h (0 Bft)
15.06.2016 03:45 9,1 C 8,6 C 80 % 1004,9 hPa 0,0 mm 0,0 km/h (0 Bft) NO 45 0 min 5,8 C 0,0 km/h (0 Bft)
15.06.2016 03:50 9,1 C 8,6 C 80 % 1004,9 hPa 0,0 mm 0,0 km/h (0 Bft) O 90 0 min 5,8 C 0,0 km/h (0 Bft)
15.06.2016 03:55 9,1 C 8,7 C 80 % 1004,8 hPa 0,0 mm 0,0 km/h (0 Bft) O 90 0 min 5,8 C 0,0 km/h (0 Bft)
15.06.2016 04:00 9,1 C 8,6 C 80 % 1004,8 hPa 0,0 mm 0,0 km/h (0 Bft) N 360 0 min 5,8 C 0,0 km/h (0 Bft)
15.06.2016 04:05 9,1 C 8,7 C 80 % 1004,8 hPa 0,0 mm 0,0 km/h (0 Bft) N-NO 22 0 min 5,8 C 0,0 km/h (0 Bft)
15.06.2016 04:10 9,1 C 8,6 C 80 % 1004,8 hPa 0,0 mm 0,0 km/h (0 Bft) N 360 0 min 5,8 C 0,0 km/h (0 Bft)
15.06.2016 04:15 9,1 C 8,6 C 80 % 1004,7 hPa 0,0 mm 0,0 km/h (0 Bft) O-NO 67 0 min 5,8 C 0,0 km/h (0 Bft)
15.06.2016 04:20 9,1 C 8,6 C 80 % 1004,7 hPa 0,0 mm 0,0 km/h (0 Bft) O 90 0 min 5,8 C 0,0 km/h (0 Bft)
15.06.2016 04:25 8,6 C 8,6 C 84 % 1004,7 hPa 0,0 mm 0,0 km/h (0 Bft) NO 45 0 min 6,1 C 0,0 km/h (0 Bft)
15.06.2016 04:30 8,6 C 8,5 C 84 % 1004,7 hPa 0,0 mm 0,0 km/h (0 Bft) N-NW 337 0 min 6,1 C 0,0 km/h (0 Bft)
15.06.2016 04:35 8,6 C 8,4 C 84 % 1004,3 hPa 0,0 mm 0,0 km/h (0 Bft) N 360 0 min 6,1 C 0,0 km/h (0 Bft)
15.06.2016 04:40 8,5 C 8,3 C 84 % 1004,3 hPa 0,0 mm 0,0 km/h (0 Bft) NO 45 0 min 6,0 C 0,0 km/h (0 Bft)
15.06.2016 04:45 8,5 C 8,3 C 84 % 1004,3 hPa 0,0 mm 0,0 km/h (0 Bft) N 360 0 min 6,0 C 0,0 km/h (0 Bft)
15.06.2016 04:50 8,4 C 8,3 C 84 % 1004,3 hPa 0,0 mm 0,0 km/h (0 Bft) O-NO 67 0 min 5,9 C 0,0 km/h (0 Bft)
15.06.2016 04:55 8,4 C 8,4 C 84 % 1004,3 hPa 0,0 mm 0,0 km/h (0 Bft) S-SO 157 0 min 5,9 C 0,0 km/h (0 Bft)
15.06.2016 05:00 8,5 C 8,4 C 85 % 1004,3 hPa 0,0 mm 0,0 km/h (0 Bft) NO 45 0 min 6,1 C 0,0 km/h (0 Bft)
15.06.2016 05:05 8,5 C 8,4 C 85 % 1004,3 hPa 0,0 mm 0,0 km/h (0 Bft) N-NO 22 0 min 6,1 C 0,0 km/h (0 Bft)
15.06.2016 05:10 8,5 C 8,4 C 85 % 1004,3 hPa 0,0 mm 0,0 km/h (0 Bft) N-NO 22 0 min 6,1 C 0,0 km/h (0 Bft)
15.06.2016 05:15 8,5 C 8,3 C 85 % 1004,3 hPa 0,0 mm 0,0 km/h (0 Bft) N-NO 22 0 min 6,1 C 0,0 km/h (0 Bft)
15.06.2016 05:20 8,5 C 8,3 C 85 % 1004,3 hPa 0,0 mm 0,0 km/h (0 Bft) O-NO 67 0 min 6,1 C 0,0 km/h (0 Bft)
15.06.2016 05:25 8,5 C 8,3 C 85 % 1004,3 hPa 0,0 mm 0,0 km/h (0 Bft) NW 315 0 min 6,1 C 0,0 km/h (0 Bft)
15.06.2016 05:30 8,5 C 8,3 C 85 % 1004,3 hPa 0,0 mm 0,0 km/h (0 Bft) N-NO 22 0 min 6,1 C 0,0 km/h (0 Bft)
15.06.2016 05:35 8,5 C 8,3 C 85 % 1004,2 hPa 0,0 mm 0,0 km/h (0 Bft) NO 45 0 min 6,1 C 0,0 km/h (0 Bft)
15.06.2016 05:40 8,5 C 8,3 C 85 % 1004,2 hPa 0,0 mm 0,0 km/h (0 Bft) N-NW 337 0 min 6,1 C 0,0 km/h (0 Bft)
15.06.2016 05:45 8,5 C 8,3 C 85 % 1004,2 hPa 0,0 mm 0,0 km/h (0 Bft) S-SW 202 0 min 6,1 C 0,0 km/h (0 Bft)
15.06.2016 05:50 8,5 C 8,3 C 85 % 1004,2 hPa 0,0 mm 0,0 km/h (0 Bft) NO 45 0 min 6,1 C 0,0 km/h (0 Bft)
15.06.2016 05:55 8,5 C 8,4 C 85 % 1004,5 hPa 0,0 mm 0,0 km/h (0 Bft) NO 45 0 min 6,1 C 0,0 km/h (0 Bft)
15.06.2016 06:00 8,5 C 8,4 C 85 % 1004,5 hPa 0,0 mm 0,0 km/h (0 Bft) N-NO 22 0 min 6,1 C 0,0 km/h (0 Bft)
15.06.2016 06:05 8,5 C 8,5 C 85 % 1004,5 hPa 0,0 mm 0,0 km/h (0 Bft) O-NO 67 0 min 6,1 C 0,0 km/h (0 Bft)
15.06.2016 06:10 8,6 C 8,5 C 85 % 1004,5 hPa 0,0 mm 0,0 km/h (0 Bft) N-NW 337 0 min 6,2 C 0,0 km/h (0 Bft)
15.06.2016 06:11 8,6 C 8,6 C 85 % 1004,0 hPa 0,0 mm 0,0 km/h (0 Bft) N-NO 22 0 min 6,2 C 0,0 km/h (0 Bft)
15.06.2016 06:16 8,6 C 8,6 C 85 % 1004,0 hPa 0,0 mm 0,0 km/h (0 Bft) N-NO 22 0 min 6,2 C 0,0 km/h (0 Bft)
15.06.2016 06:20 8,7 C 8,6 C 85 % 1004,0 hPa 0,0 mm 0,0 km/h (0 Bft) NW 315 0 min 6,3 C 0,0 km/h (0 Bft)
15.06.2016 06:25 8,7 C 8,7 C 85 % 1004,0 hPa 0,0 mm 0,0 km/h (0 Bft) W-NW 292 0 min 6,3 C 0,0 km/h (0 Bft)
15.06.2016 06:30 8,8 C 8,7 C 85 % 1004,0 hPa 0,0 mm 0,0 km/h (0 Bft) O-SO 112 0 min 6,4 C 0,0 km/h (0 Bft)
15.06.2016 06:35 8,8 C 8,7 C 85 % 1003,8 hPa 0,0 mm 0,0 km/h (0 Bft) SO 135 0 min 6,4 C 0,0 km/h (0 Bft)
15.06.2016 06:40 8,9 C 8,8 C 85 % 1003,8 hPa 0,0 mm 0,0 km/h (0 Bft) N-NW 337 0 min 6,5 C 0,0 km/h (0 Bft)
15.06.2016 06:45 8,9 C 8,8 C 85 % 1003,8 hPa 0,0 mm 0,0 km/h (0 Bft) SO 135 0 min 6,5 C 0,0 km/h (0 Bft)
15.06.2016 06:50 9,0 C 8,9 C 85 % 1003,8 hPa 0,0 mm 0,0 km/h (0 Bft) N-NW 337 0 min 6,6 C 0,0 km/h (0 Bft)
15.06.2016 06:55 9,1 C 9,1 C 85 % 1004,3 hPa 0,0 mm 0,0 km/h (0 Bft) S 180 0 min 6,7 C 0,0 km/h (0 Bft)
15.06.2016 07:00 9,2 C 9,3 C 85 % 1004,3 hPa 0,0 mm 0,0 km/h (0 Bft) O-NO 67 0 min 6,8 C 0,0 km/h (0 Bft)
15.06.2016 07:05 9,3 C 9,4 C 85 % 1004,3 hPa 0,0 mm 0,0 km/h (0 Bft) NO 45 0 min 6,9 C 0,0 km/h (0 Bft)
15.06.2016 07:10 9,4 C 9,6 C 85 % 1004,3 hPa 0,0 mm 0,0 km/h (0 Bft) N 360 0 min 7,0 C 0,0 km/h (0 Bft)
15.06.2016 07:15 9,4 C 9,5 C 85 % 1004,3 hPa 0,0 mm 0,0 km/h (0 Bft) NO 45 0 min 7,0 C 0,0 km/h (0 Bft)
15.06.2016 07:20 9,3 C 9,4 C 84 % 1004,3 hPa 0,0 mm 0,0 km/h (0 Bft) N-NW 337 0 min 6,7 C 0,0 km/h (0 Bft)
15.06.2016 07:25 10,3 C 11,5 C 84 % 1004,3 hPa 0,0 mm 0,0 km/h (0 Bft) NO 45 0 min 7,7 C 0,0 km/h (0 Bft)
15.06.2016 07:30 11,3 C 14,8 C 84 % 1004,3 hPa 0,0 mm 0,0 km/h (0 Bft) N-NO 22 5 min 8,7 C 0,0 km/h (0 Bft)
15.06.2016 07:35 12,4 C 17,9 C 83 % 1004,2 hPa 0,0 mm 0,3 km/h (0 Bft) O-NO 67 5 min 9,6 C 0,0 km/h (0 Bft)
15.06.2016 07:40 13,0 C 19,8 C 81 % 1004,2 hPa 0,0 mm 0,3 km/h (0 Bft) N-NW 337 5 min 9,8 C 0,0 km/h (0 Bft)
15.06.2016 07:45 13,3 C 22,0 C 79 % 1004,2 hPa 0,0 mm 0,0 km/h (0 Bft) N-NO 22 5 min 9,7 C 0,0 km/h (0 Bft)
15.06.2016 07:50 13,9 C 22,9 C 78 % 1004,2 hPa 0,0 mm 0,0 km/h (0 Bft) O-NO 67 5 min 10,1 C 0,0 km/h (0 Bft)
15.06.2016 07:55 14,3 C 24,0 C 76 % 1003,9 hPa 0,0 mm 0,0 km/h (0 Bft) O-NO 67 5 min 10,1 C 0,0 km/h (0 Bft)
15.06.2016 08:00 14,6 C 24,0 C 75 % 1003,9 hPa 0,0 mm 0,0 km/h (0 Bft) S-SO 157 5 min 10,2 C 0,0 km/h (0 Bft)
15.06.2016 08:05 15,2 C 25,0 C 73 % 1003,9 hPa 0,0 mm 0,0 km/h (0 Bft) O-SO 112 5 min 10,4 C 0,0 km/h (0 Bft)
15.06.2016 08:10 15,5 C 25,2 C 71 % 1003,9 hPa 0,0 mm 0,0 km/h (0 Bft) O-NO 67 5 min 10,3 C 0,0 km/h (0 Bft)
15.06.2016 08:15 15,7 C 25,2 C 70 % 1004,3 hPa 0,0 mm 0,0 km/h (0 Bft) O-NO 67 5 min 10,2 C 0,0 km/h (0 Bft)
15.06.2016 08:20 15,3 C 24,5 C 70 % 1004,3 hPa 0,0 mm 0,0 km/h (0 Bft) NO 45 5 min 9,9 C 0,0 km/h (0 Bft)
15.06.2016 08:25 15,5 C 24,2 C 70 % 1004,3 hPa 0,0 mm 0,0 km/h (0 Bft) N-NO 22 5 min 10,1 C 0,0 km/h (0 Bft)
15.06.2016 08:30 15,7 C 23,9 C 68 % 1004,3 hPa 0,0 mm 0,0 km/h (0 Bft) N 360 5 min 9,8 C 0,0 km/h (0 Bft)
15.06.2016 08:35 16,4 C 23,6 C 68 % 1004,8 hPa 0,0 mm 0,0 km/h (0 Bft) W-NW 292 5 min 10,5 C 0,0 km/h (0 Bft)
15.06.2016 08:40 16,7 C 24,0 C 67 % 1004,8 hPa 0,0 mm 0,0 km/h (0 Bft) W 270 5 min 10,5 C 0,0 km/h (0 Bft)
15.06.2016 08:45 15,9 C 22,3 C 67 % 1004,8 hPa 0,0 mm 0,0 km/h (0 Bft) O-NO 67 5 min 9,8 C 0,0 km/h (0 Bft)
15.06.2016 08:50 15,3 C 21,1 C 66 % 1004,8 hPa 0,0 mm 0,0 km/h (0 Bft) SO 135 5 min 9,0 C 0,0 km/h (0 Bft)
15.06.2016 08:55 16,3 C 23,4 C 66 % 1005,2 hPa 0,0 mm 0,0 km/h (0 Bft) SO 135 5 min 9,9 C 0,0 km/h (0 Bft)
15.06.2016 09:00 16,5 C 24,4 C 64 % 1005,2 hPa 0,0 mm 0,0 km/h (0 Bft) NO 45 5 min 9,7 C 0,0 km/h (0 Bft)
15.06.2016 09:05 17,2 C 25,6 C 64 % 1005,2 hPa 0,0 mm 0,0 km/h (0 Bft) O-NO 67 5 min 10,3 C 0,0 km/h (0 Bft)
15.06.2016 09:10 17,1 C 25,3 C 61 % 1005,2 hPa 0,0 mm 0,0 km/h (0 Bft) N-NO 22 5 min 9,5 C 0,0 km/h (0 Bft)
15.06.2016 09:15 17,0 C 24,0 C 60 % 1005,4 hPa 0,0 mm 0,0 km/h (0 Bft) NW 315 5 min 9,2 C 0,0 km/h (0 Bft)
15.06.2016 09:16 17,4 C 24,0 C 61 % 1005,4 hPa 0,0 mm 0,0 km/h (0 Bft) O-NO 67 1 min 9,8 C 0,0 km/h (0 Bft)
15.06.2016 09:17 17,4 C 24,0 C 61 % 1005,4 hPa 0,0 mm 0,0 km/h (0 Bft) O-NO 67 1 min 9,8 C 0,0 km/h (0 Bft)
15.06.2016 09:20 17,4 C 24,0 C 61 % 1005,4 hPa 0,0 mm 0,0 km/h (0 Bft) O-NO 67 3 min 9,8 C 0,0 km/h (0 Bft)
15.06.2016 09:25 17,2 C 23,9 C 60 % 1005,4 hPa 0,0 mm 0,0 km/h (0 Bft) W-NW 292 5 min 9,4 C 0,0 km/h (0 Bft)
15.06.2016 09:30 16,6 C 22,6 C 60 % 1005,4 hPa 0,0 mm 0,0 km/h (0 Bft) O 90 5 min 8,8 C 0,0 km/h (0 Bft)
15.06.2016 09:35 15,6 C 20,1 C 62 % 1005,8 hPa 0,0 mm 0,6 km/h (0 Bft) O-SO 112 5 min 8,3 C 0,0 km/h (0 Bft)
15.06.2016 09:40 15,6 C 19,7 C 63 % 1005,8 hPa 0,0 mm 0,6 km/h (0 Bft) O-NO 67 5 min 8,6 C 0,0 km/h (0 Bft)
15.06.2016 09:45 16,3 C 20,5 C 61 % 1005,8 hPa 0,0 mm 0,9 km/h (0 Bft) NW 315 5 min 8,8 C 0,0 km/h (0 Bft)
15.06.2016 09:50 16,6 C 20,9 C 60 % 1005,8 hPa 0,0 mm 1,2 km/h (1 Bft) NW 315 5 min 8,8 C 0,0 km/h (0 Bft)
15.06.2016 09:55 17,7 C 23,9 C 58 % 1006,0 hPa 0,0 mm 0,9 km/h (0 Bft) N-NO 22 5 min 9,3 C 4,2 km/h (1 Bft)
15.06.2016 10:00 17,9 C 24,6 C 56 % 1006,0 hPa 0,0 mm 0,9 km/h (0 Bft) O-NO 67 5 min 9,0 C 0,0 km/h (0 Bft)
15.06.2016 10:05 17,8 C 25,5 C 55 % 1006,0 hPa 0,0 mm 1,8 km/h (1 Bft) NO 45 5 min 8,6 C 0,0 km/h (0 Bft)
15.06.2016 10:10 18,1 C 25,5 C 55 % 1006,0 hPa 0,0 mm 0,9 km/h (0 Bft) SO 135 5 min 8,9 C 0,0 km/h (0 Bft)
15.06.2016 10:15 18,2 C 25,5 C 54 % 1005,7 hPa 0,0 mm 1,2 km/h (1 Bft) O-SO 112 5 min 8,7 C 0,0 km/h (0 Bft)
15.06.2016 10:20 18,4 C 25,6 C 53 % 1005,7 hPa 0,0 mm 2,1 km/h (1 Bft) N 360 5 min 8,6 C 6,9 km/h (2 Bft)
15.06.2016 10:25 17,5 C 23,2 C 53 % 1005,7 hPa 0,0 mm 3,3 km/h (1 Bft) W-SW 247 5 min 7,8 C 0,0 km/h (0 Bft)
15.06.2016 10:30 17,4 C 22,9 C 53 % 1005,7 hPa 0,0 mm 3,0 km/h (1 Bft) NO 45 5 min 7,7 C 0,0 km/h (0 Bft)
15.06.2016 10:35 17,7 C 23,7 C 54 % 1005,9 hPa 0,0 mm 0,0 km/h (0 Bft) SO 135 5 min 8,3 C 0,0 km/h (0 Bft)
15.06.2016 10:40 18,3 C 24,5 C 53 % 1005,9 hPa 0,0 mm 0,0 km/h (0 Bft) NW 315 5 min 8,6 C 0,0 km/h (0 Bft)
15.06.2016 10:45 18,6 C 25,2 C 51 % 1005,9 hPa 0,0 mm 2,1 km/h (1 Bft) NO 45 5 min 8,3 C 0,0 km/h (0 Bft)
15.06.2016 10:50 18,0 C 25,3 C 50 % 1005,9 hPa 0,0 mm 3,0 km/h (1 Bft) O-NO 67 5 min 7,4 C 4,8 km/h (1 Bft)
15.06.2016 10:55 17,9 C 24,5 C 50 % 1005,8 hPa 0,0 mm 2,7 km/h (1 Bft) NO 45 5 min 7,3 C 0,0 km/h (0 Bft)
15.06.2016 11:00 18,2 C 24,9 C 50 % 1005,8 hPa 0,0 mm 2,1 km/h (1 Bft) S-SO 157 5 min 7,6 C 0,0 km/h (0 Bft)
15.06.2016 11:05 19,5 C 26,7 C 51 % 1005,8 hPa 0,0 mm 0,3 km/h (0 Bft) N-NO 22 5 min 9,1 C 7,2 km/h (2 Bft)
15.06.2016 11:10 19,1 C 26,7 C 50 % 1005,8 hPa 0,0 mm 2,7 km/h (1 Bft) W 270 5 min 8,4 C 13,7 km/h (3 Bft)
15.06.2016 11:15 18,8 C 25,8 C 51 % 1005,9 hPa 0,0 mm 4,5 km/h (1 Bft) S-SO 157 5 min 8,4 C 0,0 km/h (0 Bft)
15.06.2016 11:20 19,0 C 25,9 C 49 % 1005,9 hPa 0,0 mm 3,0 km/h (1 Bft) O-NO 67 5 min 8,0 C 3,6 km/h (1 Bft)
15.06.2016 11:25 18,3 C 24,7 C 50 % 1005,9 hPa 0,0 mm 1,8 km/h (1 Bft) W-SW 247 5 min 7,7 C 0,0 km/h (0 Bft)
15.06.2016 11:30 18,5 C 24,6 C 50 % 1005,9 hPa 0,0 mm 2,1 km/h (1 Bft) SO 135 5 min 7,9 C 0,0 km/h (0 Bft)
15.06.2016 11:35 18,5 C 24,6 C 49 % 1006,0 hPa 0,0 mm 2,7 km/h (1 Bft) N-NO 22 5 min 7,6 C 9,5 km/h (2 Bft)
15.06.2016 11:40 18,7 C 24,4 C 49 % 1006,0 hPa 0,0 mm 4,2 km/h (1 Bft) N-NO 22 5 min 7,8 C 6,0 km/h (2 Bft)
15.06.2016 11:45 19,2 C 25,1 C 48 % 1006,0 hPa 0,0 mm 4,5 km/h (1 Bft) O-SO 112 5 min 7,9 C 6,6 km/h (2 Bft)
15.06.2016 11:50 18,6 C 24,7 C 49 % 1006,0 hPa 0,0 mm 2,7 km/h (1 Bft) NO 45 5 min 7,7 C 7,7 km/h (2 Bft)
15.06.2016 11:55 18,4 C 23,5 C 48 % 1006,1 hPa 0,0 mm 2,4 km/h (1 Bft) N-NO 22 5 min 7,2 C 4,8 km/h (1 Bft)
15.06.2016 12:00 18,4 C 23,5 C 49 % 1006,1 hPa 0,0 mm 1,8 km/h (1 Bft) S-SO 157 5 min 7,5 C 0,0 km/h (0 Bft)
15.06.2016 12:05 18,5 C 23,2 C 49 % 1006,1 hPa 0,0 mm 1,2 km/h (1 Bft) O-NO 67 5 min 7,6 C 0,0 km/h (0 Bft)
15.06.2016 12:10 18,4 C 23,0 C 49 % 1006,1 hPa 0,0 mm 2,4 km/h (1 Bft) O 90 5 min 7,5 C 4,5 km/h (1 Bft)
15.06.2016 12:15 17,9 C 22,7 C 50 % 1006,1 hPa 0,0 mm 2,4 km/h (1 Bft) W-SW 247 5 min 7,3 C 0,0 km/h (0 Bft)
15.06.2016 12:16 18,0 C 22,6 C 50 % 1006,1 hPa 0,0 mm 1,5 km/h (1 Bft) NW 315 1 min 7,4 C 4,8 km/h (1 Bft)
15.06.2016 12:18 18,0 C 22,6 C 50 % 1006,1 hPa 0,0 mm 1,5 km/h (1 Bft) NW 315 2 min 7,4 C 4,8 km/h (1 Bft)
15.06.2016 12:20 18,0 C 22,6 C 50 % 1006,1 hPa 0,0 mm 1,5 km/h (1 Bft) NW 315 2 min 7,4 C 4,8 km/h (1 Bft)
15.06.2016 12:25 18,2 C 22,0 C 50 % 1006,1 hPa 0,0 mm 1,8 km/h (1 Bft) NW 315 5 min 7,6 C 7,2 km/h (2 Bft)
15.06.2016 12:30 18,0 C 21,4 C 50 % 1006,1 hPa 0,0 mm 3,6 km/h (1 Bft) W 270 5 min 7,4 C 10,1 km/h (2 Bft)
15.06.2016 12:35 18,3 C 21,4 C 49 % 1005,7 hPa 0,0 mm 3,3 km/h (1 Bft) N-NW 337 0 min 7,4 C 4,8 km/h (1 Bft)
15.06.2016 12:40 18,7 C 22,4 C 49 % 1005,7 hPa 0,0 mm 3,3 km/h (1 Bft) N-NW 337 5 min 7,8 C 8,6 km/h (2 Bft)
15.06.2016 12:45 19,1 C 23,6 C 50 % 1005,7 hPa 0,0 mm 3,9 km/h (1 Bft) O-NO 67 5 min 8,4 C 0,0 km/h (0 Bft)
15.06.2016 12:50 19,0 C 24,1 C 48 % 1005,7 hPa 0,0 mm 3,0 km/h (1 Bft) N-NO 22 5 min 7,7 C 9,5 km/h (2 Bft)
15.06.2016 12:55 18,4 C 22,9 C 49 % 1005,7 hPa 0,0 mm 7,7 km/h (2 Bft) NW 315 5 min 7,5 C 26,2 km/h (4 Bft)
15.06.2016 13:00 17,5 C 20,6 C 52 % 1005,7 hPa 0,0 mm 14,6 km/h (3 Bft) W 270 5 min 7,5 C 28,6 km/h (4 Bft)
15.06.2016 13:05 16,5 C 18,4 C 55 % 1005,7 hPa 0,0 mm 15,8 km/h (3 Bft) N 360 0 min 7,4 C 31,6 km/h (5 Bft)
15.06.2016 13:10 16,4 C 18,0 C 57 % 1005,7 hPa 0,0 mm 13,7 km/h (3 Bft) W 270 0 min 7,9 C 14,9 km/h (3 Bft)
15.06.2016 13:15 16,4 C 18,2 C 58 % 1006,0 hPa 0,0 mm 11,3 km/h (2 Bft) NW 315 0 min 8,1 C 12,5 km/h (3 Bft)
15.06.2016 13:20 16,5 C 18,7 C 57 % 1006,0 hPa 0,0 mm 9,2 km/h (2 Bft) W-SW 247 0 min 8,0 C 4,8 km/h (1 Bft)
15.06.2016 13:25 16,9 C 19,8 C 58 % 1006,0 hPa 0,0 mm 8,9 km/h (2 Bft) W 270 0 min 8,6 C 16,7 km/h (3 Bft)
15.06.2016 13:30 17,5 C 20,4 C 58 % 1006,0 hPa 0,0 mm 10,4 km/h (2 Bft) W-NW 292 0 min 9,1 C 17,9 km/h (3 Bft)
15.06.2016 13:35 18,2 C 22,1 C 57 % 1006,0 hPa 0,0 mm 10,7 km/h (2 Bft) NW 315 0 min 9,5 C 7,2 km/h (2 Bft)
15.06.2016 13:40 18,5 C 22,8 C 58 % 1006,0 hPa 0,0 mm 10,7 km/h (2 Bft) W-NW 292 5 min 10,1 C 8,6 km/h (2 Bft)
15.06.2016 13:45 18,7 C 23,3 C 57 % 1006,0 hPa 0,0 mm 11,6 km/h (2 Bft) NW 315 5 min 10,0 C 14,9 km/h (3 Bft)
15.06.2016 13:50 18,2 C 22,6 C 57 % 1006,0 hPa 0,0 mm 11,9 km/h (2 Bft) W-SW 247 5 min 9,5 C 23,2 km/h (4 Bft)
15.06.2016 13:55 17,6 C 21,1 C 57 % 1006,1 hPa 0,0 mm 11,9 km/h (2 Bft) N-NW 337 5 min 9,0 C 26,5 km/h (4 Bft)
15.06.2016 14:00 17,5 C 20,6 C 57 % 1006,1 hPa 0,0 mm 11,0 km/h (2 Bft) W 270 0 min 8,9 C 10,1 km/h (2 Bft)
15.06.2016 14:05 17,2 C 20,2 C 57 % 1006,1 hPa 0,0 mm 10,7 km/h (2 Bft) W 270 0 min 8,6 C 11,9 km/h (2 Bft)
15.06.2016 14:10 17,0 C 19,8 C 57 % 1006,1 hPa 0,0 mm 9,2 km/h (2 Bft) NW 315 0 min 8,4 C 5,4 km/h (1 Bft)
15.06.2016 14:15 17,4 C 20,4 C 58 % 1006,1 hPa 0,0 mm 7,5 km/h (2 Bft) N 360 0 min 9,1 C 9,8 km/h (2 Bft)
15.06.2016 14:20 17,6 C 21,0 C 57 % 1006,1 hPa 0,0 mm 8,3 km/h (2 Bft) NW 315 0 min 9,0 C 8,0 km/h (2 Bft)
15.06.2016 14:25 18,0 C 21,5 C 57 % 1006,1 hPa 0,0 mm 10,1 km/h (2 Bft) W 270 0 min 9,4 C 22,1 km/h (4 Bft)
15.06.2016 14:30 17,3 C 20,9 C 57 % 1006,1 hPa 0,0 mm 10,7 km/h (2 Bft) NW 315 5 min 8,7 C 19,4 km/h (3 Bft)
15.06.2016 14:35 16,9 C 19,5 C 58 % 1006,1 hPa 0,0 mm 12,8 km/h (3 Bft) NW 315 0 min 8,6 C 19,4 km/h (3 Bft)
15.06.2016 14:40 16,7 C 18,9 C 59 % 1006,1 hPa 0,0 mm 11,9 km/h (2 Bft) W 270 0 min 8,6 C 10,1 km/h (2 Bft)
15.06.2016 14:45 16,6 C 18,8 C 59 % 1006,1 hPa 0,0 mm 10,7 km/h (2 Bft) N 360 0 min 8,6 C 9,2 km/h (2 Bft)
15.06.2016 14:50 17,1 C 19,9 C 59 % 1006,1 hPa 0,0 mm 9,5 km/h (2 Bft) W-SW 247 0 min 9,0 C 11,6 km/h (2 Bft)
15.06.2016 14:55 16,9 C 19,8 C 59 % 1005,9 hPa 0,0 mm 8,9 km/h (2 Bft) W 270 0 min 8,8 C 11,3 km/h (2 Bft)
15.06.2016 15:00 17,0 C 20,0 C 59 % 1005,9 hPa 0,0 mm 8,9 km/h (2 Bft) NW 315 0 min 8,9 C 8,6 km/h (2 Bft)
15.06.2016 15:05 18,0 C 22,1 C 59 % 1005,9 hPa 0,0 mm 6,9 km/h (2 Bft) W-SW 247 0 min 9,9 C 8,0 km/h (2 Bft)
15.06.2016 15:10 18,0 C 22,9 C 58 % 1005,9 hPa 0,0 mm 8,0 km/h (2 Bft) W 270 5 min 9,6 C 12,2 km/h (2 Bft)
15.06.2016 15:15 17,3 C 21,6 C 58 % 1005,9 hPa 0,0 mm 10,4 km/h (2 Bft) W 270 5 min 9,0 C 7,5 km/h (2 Bft)
15.06.2016 15:16 17,2 C 20,9 C 59 % 1005,9 hPa 0,0 mm 7,2 km/h (2 Bft) NW 315 0 min 9,1 C 0,0 km/h (0 Bft)
15.06.2016 15:19 17,2 C 20,9 C 59 % 1005,9 hPa 0,0 mm 7,2 km/h (2 Bft) NW 315 0 min 9,1 C 0,0 km/h (0 Bft)
15.06.2016 15:20 17,2 C 20,9 C 59 % 1005,9 hPa 0,0 mm 7,2 km/h (2 Bft) NW 315 0 min 9,1 C 0,0 km/h (0 Bft)
15.06.2016 15:25 17,5 C 22,5 C 58 % 1005,9 hPa 0,0 mm 4,2 km/h (1 Bft) W 270 5 min 9,1 C 7,7 km/h (2 Bft)
15.06.2016 15:30 17,2 C 21,6 C 58 % 1005,9 hPa 0,0 mm 4,8 km/h (1 Bft) W-SW 247 5 min 8,9 C 4,8 km/h (1 Bft)
15.06.2016 15:35 17,7 C 21,4 C 59 % 1006,1 hPa 0,0 mm 5,1 km/h (1 Bft) NW 315 0 min 9,6 C 8,9 km/h (2 Bft)
15.06.2016 15:40 17,8 C 22,4 C 58 % 1006,1 hPa 0,0 mm 6,9 km/h (2 Bft) W-NW 292 5 min 9,4 C 14,0 km/h (3 Bft)
15.06.2016 15:45 18,2 C 23,5 C 57 % 1006,1 hPa 0,0 mm 8,0 km/h (2 Bft) NW 315 5 min 9,5 C 6,3 km/h (2 Bft)
15.06.2016 15:50 17,9 C 23,6 C 57 % 1006,1 hPa 0,0 mm 8,6 km/h (2 Bft) N-NW 337 5 min 9,3 C 13,4 km/h (3 Bft)
15.06.2016 15:55 18,1 C 23,5 C 57 % 1005,8 hPa 0,0 mm 9,2 km/h (2 Bft) W 270 5 min 9,4 C 16,7 km/h (3 Bft)
15.06.2016 16:00 18,4 C 24,1 C 56 % 1005,8 hPa 0,0 mm 8,6 km/h (2 Bft) NW 315 5 min 9,5 C 8,0 km/h (2 Bft)
15.06.2016 16:05 18,8 C 25,4 C 56 % 1005,8 hPa 0,0 mm 9,2 km/h (2 Bft) W 270 5 min 9,8 C 3,3 km/h (1 Bft)
15.06.2016 16:10 18,5 C 25,6 C 55 % 1005,8 hPa 0,0 mm 7,5 km/h (2 Bft) W 270 5 min 9,3 C 15,5 km/h (3 Bft)
15.06.2016 16:15 17,9 C 23,4 C 56 % 1005,7 hPa 0,0 mm 7,5 km/h (2 Bft) W 270 5 min 9,0 C 17,3 km/h (3 Bft)
15.06.2016 16:20 18,0 C 23,9 C 56 % 1005,7 hPa 0,0 mm 9,5 km/h (2 Bft) NW 315 5 min 9,1 C 17,0 km/h (3 Bft)
15.06.2016 16:25 17,7 C 22,9 C 56 % 1005,7 hPa 0,0 mm 11,6 km/h (2 Bft) W 270 5 min 8,8 C 12,8 km/h (3 Bft)
15.06.2016 16:30 17,3 C 21,2 C 56 % 1005,7 hPa 0,0 mm 11,9 km/h (2 Bft) NW 315 5 min 8,4 C 23,2 km/h (4 Bft)
15.06.2016 16:35 16,9 C 19,2 C 56 % 1005,7 hPa 0,0 mm 11,6 km/h (2 Bft) W 270 0 min 8,1 C 18,8 km/h (3 Bft)
15.06.2016 16:40 16,7 C 18,3 C 57 % 1005,7 hPa 0,0 mm 9,8 km/h (2 Bft) W-NW 292 0 min 8,1 C 12,2 km/h (2 Bft)
15.06.2016 16:45 16,4 C 17,5 C 58 % 1005,7 hPa 0,0 mm 4,8 km/h (1 Bft) W-NW 292 0 min 8,1 C 7,7 km/h (2 Bft)
15.06.2016 16:50 16,3 C 17,0 C 58 % 1005,7 hPa 0,0 mm 4,2 km/h (1 Bft) W-SW 247 0 min 8,0 C 3,0 km/h (1 Bft)
15.06.2016 16:55 16,1 C 16,5 C 59 % 1005,9 hPa 0,0 mm 1,8 km/h (1 Bft) SO 135 0 min 8,1 C 0,0 km/h (0 Bft)
15.06.2016 17:00 16,0 C 16,3 C 59 % 1005,9 hPa 0,0 mm 0,3 km/h (0 Bft) S-SW 202 0 min 8,0 C 0,0 km/h (0 Bft)
15.06.2016 17:05 15,7 C 15,8 C 59 % 1005,9 hPa 0,0 mm 1,8 km/h (1 Bft) SW 225 0 min 7,7 C 8,0 km/h (2 Bft)
15.06.2016 17:10 15,7 C 15,6 C 60 % 1005,9 hPa 0,0 mm 3,9 km/h (1 Bft) SW 225 0 min 8,0 C 5,4 km/h (1 Bft)
15.06.2016 17:15 15,2 C 15,0 C 63 % 1006,0 hPa 0,0 mm 2,7 km/h (1 Bft) S 180 0 min 8,2 C 0,0 km/h (0 Bft)
15.06.2016 17:20 14,8 C 14,7 C 64 % 1006,0 hPa 0,0 mm 0,3 km/h (0 Bft) NW 315 0 min 8,1 C 0,0 km/h (0 Bft)
15.06.2016 17:25 14,5 C 14,4 C 66 % 1006,0 hPa 0,0 mm 0,0 km/h (0 Bft) W-NW 292 0 min 8,2 C 0,0 km/h (0 Bft)
15.06.2016 17:30 14,5 C 14,1 C 66 % 1006,0 hPa 0,0 mm 0,9 km/h (0 Bft) W 270 0 min 8,2 C 0,0 km/h (0 Bft)
15.06.2016 17:35 14,4 C 13,7 C 68 % 1006,0 hPa 0,0 mm 4,2 km/h (1 Bft) S 180 0 min 8,6 C 16,4 km/h (3 Bft)
15.06.2016 17:40 14,2 C 13,7 C 69 % 1006,0 hPa 0,7 mm 5,4 km/h (1 Bft) S 180 0 min 8,6 C 0,0 km/h (0 Bft)
15.06.2016 17:45 14,5 C 14,9 C 71 % 1006,0 hPa 0,7 mm 2,4 km/h (1 Bft) W-NW 292 0 min 9,3 C 0,0 km/h (0 Bft)
15.06.2016 17:50 14,8 C 15,5 C 73 % 1006,0 hPa 0,0 mm 0,0 km/h (0 Bft) N-NO 22 0 min 10,0 C 0,0 km/h (0 Bft)
15.06.2016 17:55 15,1 C 15,8 C 73 % 1006,0 hPa 0,0 mm 0,0 km/h (0 Bft) N 360 0 min 10,3 C 0,0 km/h (0 Bft)
15.06.2016 18:00 15,0 C 15,8 C 73 % 1006,0 hPa 0,0 mm 0,0 km/h (0 Bft) O 90 0 min 10,2 C 0,0 km/h (0 Bft)
15.06.2016 18:05 14,8 C 15,5 C 74 % 1006,0 hPa 0,0 mm 0,0 km/h (0 Bft) N-NO 22 0 min 10,2 C 0,0 km/h (0 Bft)
15.06.2016 18:10 14,7 C 15,3 C 73 % 1006,0 hPa 0,0 mm 0,3 km/h (0 Bft) W-SW 247 0 min 9,9 C 0,0 km/h (0 Bft)
15.06.2016 18:15 14,9 C 15,3 C 72 % 1006,2 hPa 0,0 mm 0,9 km/h (0 Bft) W-SW 247 0 min 9,9 C 0,0 km/h (0 Bft)
15.06.2016 18:16 14,9 C 15,3 C 72 % 1006,2 hPa 0,0 mm 0,9 km/h (0 Bft) O-SO 112 0 min 9,9 C 0,0 km/h (0 Bft)
15.06.2016 18:20 14,9 C 15,3 C 72 % 1006,2 hPa 0,0 mm 0,9 km/h (0 Bft) O-SO 112 0 min 9,9 C 0,0 km/h (0 Bft)
15.06.2016 18:25 14,4 C 15,0 C 73 % 1006,2 hPa 0,0 mm 0,0 km/h (0 Bft) O-NO 67 0 min 9,6 C 0,0 km/h (0 Bft)
15.06.2016 18:30 14,4 C 14,9 C 74 % 1006,2 hPa 0,0 mm 0,0 km/h (0 Bft) N 360 0 min 9,8 C 0,0 km/h (0 Bft)
15.06.2016 18:35 14,5 C 14,9 C 74 % 1006,4 hPa 0,0 mm 0,3 km/h (0 Bft) SW 225 0 min 9,9 C 0,0 km/h (0 Bft)
15.06.2016 18:40 14,6 C 15,0 C 74 % 1006,4 hPa 0,0 mm 0,3 km/h (0 Bft) W-NW 292 0 min 10,0 C 0,0 km/h (0 Bft)
15.06.2016 18:45 14,6 C 14,8 C 74 % 1006,4 hPa 0,0 mm 0,0 km/h (0 Bft) W-SW 247 0 min 10,0 C 0,0 km/h (0 Bft)
15.06.2016 18:50 14,6 C 14,7 C 73 % 1006,4 hPa 0,0 mm 0,0 km/h (0 Bft) W 270 0 min 9,8 C 0,0 km/h (0 Bft)
15.06.2016 18:55 14,3 C 14,7 C 73 % 1006,5 hPa 0,0 mm 0,0 km/h (0 Bft) S 180 0 min 9,5 C 0,0 km/h (0 Bft)
15.06.2016 19:00 14,1 C 14,8 C 73 % 1006,5 hPa 0,0 mm 0,0 km/h (0 Bft) S 180 0 min 9,3 C 0,0 km/h (0 Bft)
15.06.2016 19:05 13,9 C 14,8 C 74 % 1006,5 hPa 0,0 mm 0,0 km/h (0 Bft) O-NO 67 0 min 9,3 C 0,0 km/h (0 Bft)
15.06.2016 19:10 13,9 C 14,7 C 75 % 1006,5 hPa 0,0 mm 0,0 km/h (0 Bft) O-NO 67 0 min 9,5 C 0,0 km/h (0 Bft)
15.06.2016 19:15 13,7 C 14,4 C 75 % 1006,6 hPa 0,0 mm 0,0 km/h (0 Bft) O-NO 67 0 min 9,3 C 0,0 km/h (0 Bft)
15.06.2016 19:20 13,6 C 14,2 C 76 % 1006,6 hPa 0,0 mm 0,0 km/h (0 Bft) O-NO 67 0 min 9,4 C 0,0 km/h (0 Bft)
15.06.2016 19:25 13,5 C 13,9 C 76 % 1006,6 hPa 0,0 mm 0,0 km/h (0 Bft) NW 315 0 min 9,4 C 0,0 km/h (0 Bft)
15.06.2016 19:30 13,5 C 13,7 C 76 % 1006,6 hPa 0,0 mm 1,2 km/h (1 Bft) S 180 0 min 9,4 C 8,3 km/h (2 Bft)
15.06.2016 19:35 13,3 C 13,4 C 76 % 1006,9 hPa 0,0 mm 1,5 km/h (1 Bft) W 270 0 min 9,2 C 0,0 km/h (0 Bft)
15.06.2016 19:40 13,2 C 13,1 C 76 % 1006,9 hPa 0,0 mm 1,2 km/h (1 Bft) S-SW 202 0 min 9,1 C 4,2 km/h (1 Bft)
15.06.2016 19:45 13,0 C 12,7 C 76 % 1006,9 hPa 0,0 mm 0,6 km/h (0 Bft) S-SW 202 0 min 8,9 C 5,7 km/h (1 Bft)
15.06.2016 19:50 12,9 C 12,5 C 78 % 1006,9 hPa 0,0 mm 3,0 km/h (1 Bft) SW 225 0 min 9,2 C 8,9 km/h (2 Bft)
15.06.2016 19:55 12,5 C 12,2 C 78 % 1007,4 hPa 0,7 mm 3,0 km/h (1 Bft) SO 135 0 min 8,8 C 0,0 km/h (0 Bft)
15.06.2016 20:00 12,3 C 12,0 C 79 % 1007,4 hPa 0,0 mm 1,2 km/h (1 Bft) S 180 0 min 8,8 C 0,0 km/h (0 Bft)
15.06.2016 20:05 12,2 C 11,9 C 79 % 1007,4 hPa 0,0 mm 0,0 km/h (0 Bft) S-SO 157 0 min 8,7 C 0,0 km/h (0 Bft)
15.06.2016 20:10 12,1 C 11,9 C 80 % 1007,4 hPa 0,7 mm 0,0 km/h (0 Bft) NW 315 0 min 8,8 C 0,0 km/h (0 Bft)
15.06.2016 20:15 12,0 C 11,8 C 80 % 1007,5 hPa 0,7 mm 0,0 km/h (0 Bft) O-SO 112 0 min 8,7 C 0,0 km/h (0 Bft)
15.06.2016 20:20 11,9 C 11,8 C 81 % 1007,5 hPa 0,0 mm 0,0 km/h (0 Bft) O-NO 67 0 min 8,7 C 0,0 km/h (0 Bft)
15.06.2016 20:25 11,9 C 11,8 C 81 % 1007,5 hPa 0,7 mm 0,0 km/h (0 Bft) SO 135 0 min 8,7 C 0,0 km/h (0 Bft)
15.06.2016 20:30 11,9 C 11,8 C 82 % 1007,5 hPa 0,0 mm 0,0 km/h (0 Bft) SO 135 0 min 8,9 C 0,0 km/h (0 Bft)
15.06.2016 20:35 11,9 C 11,8 C 83 % 1007,2 hPa 0,0 mm 0,0 km/h (0 Bft) S-SO 157 0 min 9,1 C 0,0 km/h (0 Bft)
15.06.2016 20:40 11,9 C 11,9 C 83 % 1007,2 hPa 0,0 mm 0,0 km/h (0 Bft) SO 135 0 min 9,1 C 0,0 km/h (0 Bft)
15.06.2016 20:45 11,9 C 11,9 C 83 % 1007,2 hPa 0,0 mm 0,0 km/h (0 Bft) S-SO 157 0 min 9,1 C 0,0 km/h (0 Bft)
15.06.2016 20:50 11,9 C 11,9 C 83 % 1007,2 hPa 0,0 mm 0,0 km/h (0 Bft) SO 135 0 min 9,1 C 0,0 km/h (0 Bft)
15.06.2016 20:55 11,9 C 11,9 C 83 % 1007,1 hPa 0,0 mm 0,0 km/h (0 Bft) O-SO 112 0 min 9,1 C 0,0 km/h (0 Bft)
15.06.2016 21:00 11,9 C 11,9 C 83 % 1007,1 hPa 0,0 mm 0,0 km/h (0 Bft) O-NO 67 0 min 9,1 C 0,0 km/h (0 Bft)
15.06.2016 21:05 11,8 C 11,7 C 83 % 1007,1 hPa 0,0 mm 0,0 km/h (0 Bft) SO 135 0 min 9,0 C 0,0 km/h (0 Bft)
15.06.2016 21:10 11,8 C 11,7 C 83 % 1007,1 hPa 0,0 mm 0,0 km/h (0 Bft) NO 45 0 min 9,0 C 0,0 km/h (0 Bft)
15.06.2016 21:15 11,7 C 11,6 C 84 % 1007,1 hPa 0,0 mm 0,9 km/h (0 Bft) NO 45 0 min 9,1 C 7,5 km/h (2 Bft)
15.06.2016 21:16 11,7 C 11,6 C 84 % 1007,1 hPa 0,0 mm 2,7 km/h (1 Bft) NO 45 0 min 9,1 C 4,2 km/h (1 Bft)
15.06.2016 21:21 11,7 C 11,6 C 84 % 1007,1 hPa 0,0 mm 2,7 km/h (1 Bft) NO 45 0 min 9,1 C 4,2 km/h (1 Bft)
15.06.2016 21:25 11,6 C 11,5 C 84 % 1007,1 hPa 0,0 mm 3,0 km/h (1 Bft) NW 315 0 min 9,0 C 0,0 km/h (0 Bft)
15.06.2016 21:30 11,6 C 11,6 C 85 % 1007,1 hPa 0,0 mm 0,9 km/h (0 Bft) O-NO 67 0 min 9,2 C 0,0 km/h (0 Bft)
15.06.2016 21:35 11,6 C 11,5 C 84 % 1007,4 hPa 0,0 mm 0,0 km/h (0 Bft) O-NO 67 0 min 9,0 C 0,0 km/h (0 Bft)
15.06.2016 21:40 11,6 C 11,4 C 84 % 1007,4 hPa 0,0 mm 0,0 km/h (0 Bft) N 360 0 min 9,0 C 0,0 km/h (0 Bft)
15.06.2016 21:45 11,5 C 11,4 C 84 % 1007,4 hPa 0,0 mm 0,0 km/h (0 Bft) NW 315 0 min 8,9 C 0,0 km/h (0 Bft)
15.06.2016 21:50 11,4 C 11,3 C 84 % 1007,4 hPa 0,0 mm 0,0 km/h (0 Bft) NW 315 0 min 8,8 C 0,0 km/h (0 Bft)
15.06.2016 21:55 11,4 C 11,3 C 84 % 1007,2 hPa 0,0 mm 0,0 km/h (0 Bft) NO 45 0 min 8,8 C 0,0 km/h (0 Bft)
15.06.2016 22:00 11,3 C 11,2 C 84 % 1007,2 hPa 0,0 mm 0,0 km/h (0 Bft) N-NO 22 0 min 8,7 C 0,0 km/h (0 Bft)
15.06.2016 22:05 11,3 C 11,1 C 84 % 1007,2 hPa 0,0 mm 0,0 km/h (0 Bft) SW 225 0 min 8,7 C 0,0 km/h (0 Bft)
15.06.2016 22:10 11,3 C 11,0 C 84 % 1007,2 hPa 0,0 mm 0,0 km/h (0 Bft) W-SW 247 0 min 8,7 C 0,0 km/h (0 Bft)
15.06.2016 22:15 11,1 C 10,8 C 84 % 1007,2 hPa 0,0 mm 0,0 km/h (0 Bft) N-NW 337 0 min 8,5 C 0,0 km/h (0 Bft)
15.06.2016 22:20 11,0 C 10,8 C 84 % 1007,2 hPa 0,0 mm 0,0 km/h (0 Bft) S-SO 157 0 min 8,4 C 0,0 km/h (0 Bft)
15.06.2016 22:25 10,9 C 10,7 C 85 % 1007,2 hPa 0,0 mm 0,0 km/h (0 Bft) SO 135 0 min 8,5 C 0,0 km/h (0 Bft)
15.06.2016 22:30 10,9 C 10,6 C 85 % 1007,2 hPa 0,0 mm 0,0 km/h (0 Bft) O-SO 112 0 min 8,5 C 0,0 km/h (0 Bft)
15.06.2016 22:35 10,8 C 10,5 C 85 % 1007,1 hPa 0,0 mm 0,0 km/h (0 Bft) SO 135 0 min 8,4 C 0,0 km/h (0 Bft)
15.06.2016 22:40 10,8 C 10,5 C 85 % 1007,1 hPa 0,0 mm 0,0 km/h (0 Bft) O-NO 67 0 min 8,4 C 0,0 km/h (0 Bft)
15.06.2016 22:45 10,7 C 10,4 C 85 % 1007,1 hPa 0,0 mm 0,0 km/h (0 Bft) S-SO 157 0 min 8,3 C 0,0 km/h (0 Bft)
15.06.2016 22:50 10,6 C 10,4 C 85 % 1007,1 hPa 0,0 mm 0,0 km/h (0 Bft) NO 45 0 min 8,2 C 0,0 km/h (0 Bft)
15.06.2016 22:55 10,6 C 10,4 C 85 % 1007,2 hPa 0,0 mm 0,0 km/h (0 Bft) N-NW 337 0 min 8,2 C 0,0 km/h (0 Bft)
15.06.2016 23:00 10,5 C 10,3 C 85 % 1007,2 hPa 0,0 mm 0,0 km/h (0 Bft) N-NO 22 0 min 8,1 C 0,0 km/h (0 Bft)
15.06.2016 23:05 10,5 C 10,3 C 85 % 1007,2 hPa 0,0 mm 0,0 km/h (0 Bft) NW 315 0 min 8,1 C 0,0 km/h (0 Bft)
15.06.2016 23:10 10,5 C 10,3 C 85 % 1007,2 hPa 0,0 mm 0,0 km/h (0 Bft) N-NW 337 0 min 8,1 C 0,0 km/h (0 Bft)
15.06.2016 23:15 10,5 C 10,4 C 85 % 1007,1 hPa 0,0 mm 0,0 km/h (0 Bft) W 270 0 min 8,1 C 0,0 km/h (0 Bft)
15.06.2016 23:20 10,5 C 10,4 C 85 % 1007,1 hPa 0,0 mm 0,0 km/h (0 Bft) O-NO 67 0 min 8,1 C 0,0 km/h (0 Bft)
15.06.2016 23:25 10,5 C 10,3 C 85 % 1007,1 hPa 0,0 mm 0,0 km/h (0 Bft) O-NO 67 0 min 8,1 C 0,0 km/h (0 Bft)
15.06.2016 23:30 10,5 C 10,3 C 85 % 1007,1 hPa 0,0 mm 0,0 km/h (0 Bft) N-NO 22 0 min 8,1 C 0,0 km/h (0 Bft)
15.06.2016 23:35 10,4 C 10,3 C 85 % 1007,1 hPa 0,0 mm 0,0 km/h (0 Bft) SW 225 0 min 8,0 C 0,0 km/h (0 Bft)
15.06.2016 23:40 10,5 C 10,3 C 85 % 1007,1 hPa 0,0 mm 0,0 km/h (0 Bft) O-NO 67 0 min 8,1 C 0,0 km/h (0 Bft)
15.06.2016 23:45 10,5 C 10,4 C 85 % 1007,1 hPa 0,0 mm 0,0 km/h (0 Bft) SO 135 0 min 8,1 C 0,0 km/h (0 Bft)
15.06.2016 23:50 10,5 C 10,4 C 85 % 1007,1 hPa 0,0 mm 0,0 km/h (0 Bft) SW 225 0 min 8,1 C 0,0 km/h (0 Bft)
15.06.2016 23:55 10,5 C 10,4 C 85 % 1007,2 hPa 0,0 mm 0,0 km/h (0 Bft) SO 135 0 min 8,1 C 0,0 km/h (0 Bft)
_ Min-Zeit 04:55 05:50 12:50 06:50 - 23:55 - - - 02:35 23:55
Minimum _ 8,4 C 8,3 C 48 % 1003,8 hPa - 0,0 km/h (0 Bft) - - - 5,7 C 0,0 km/h (0 Bft)
_ Max-Zeit 11:05 11:10 23:55 20:30 20:25 13:05 - - 16:30 08:40 13:05
Maximum _ 19,5 C 26,7 C 85 % 1007,5 hPa 0,7 mm 15,8 km/h
N (3 Bft)
- - 5 min 10,5 C 31,6 km/h
N (5 Bft)
Durchschnitt _ 13,4 C 15,4 C 71 % 1005,7 hPa #5,5 mm 2,7 km/h (1 Bft) NW - #7:10 h 8,0 C 3,9 km/h (1 Bft)